Time;durP1;ratioP1;P1;durP2;ratioP2;P2;SDS_P1;SDS_P2;PMS_P1;PMS_P2;Temp;Humidity;BMP_temperature;BMP_pressure;BME280_temperature;BME280_humidity;BME280_pressure;Samples;Min_cycle;Max_cycle;Signal;HPM_P1;HPM_P2
2022/07/25 00:01:15;;;;;;;7.30;6.60;;;;;;;21.39;71.82;95750.06;5050788;28;24446;-73
2022/07/25 00:03:42;;;;;;;10.02;6.53;;;;;;;21.35;71.88;95750.56;5050458;28;24435;-73
2022/07/25 00:06:08;;;;;;;7.55;6.57;;;;;;;21.27;72.18;95740.81;5050552;28;24466;-73
2022/07/25 00:08:36;;;;;;;7.90;6.70;;;;;;;21.19;72.07;95739.00;5050210;28;24986;-73
2022/07/25 00:11:03;;;;;;;10.00;6.33;;;;;;;21.17;72.25;95741.00;5050665;28;24446;-73
2022/07/25 00:13:29;;;;;;;7.35;6.65;;;;;;;21.14;72.10;95736.03;5050542;28;24435;-73
2022/07/25 00:15:55;;;;;;;8.98;6.25;;;;;;;21.11;73.17;95740.81;5050459;28;24450;-73
2022/07/25 00:18:22;;;;;;;7.85;6.63;;;;;;;21.10;73.02;95736.50;5050045;28;24442;-74
2022/07/25 00:20:48;;;;;;;9.93;6.60;;;;;;;21.09;73.11;95740.94;5046720;28;24443;-73
2022/07/25 00:23:15;;;;;;;7.30;6.60;;;;;;;21.07;73.20;95742.13;5044558;28;24497;-73
2022/07/25 00:25:43;;;;;;;7.85;6.75;;;;;;;21.06;73.30;95738.63;5049995;28;24801;-73
2022/07/25 00:28:09;;;;;;;8.18;7.07;;;;;;;21.01;73.60;95735.69;5049827;28;24946;-73
2022/07/25 00:30:35;;;;;;;17.33;6.93;;;;;;;21.11;72.46;95731.09;5050269;28;24489;-73
2022/07/25 00:33:02;;;;;;;9.98;6.85;;;;;;;21.02;73.11;95735.53;5050037;28;24434;-73
2022/07/25 00:35:28;;;;;;;6.97;6.27;;;;;;;20.63;74.59;95735.25;5048513;28;24520;-72
2022/07/25 00:37:55;;;;;;;7.85;6.13;;;;;;;20.51;75.54;95734.72;5049613;28;24439;-72
2022/07/25 00:40:22;;;;;;;8.05;6.82;;;;;;;20.28;76.74;95737.06;5050188;28;24446;-72
2022/07/25 00:42:50;;;;;;;9.73;7.32;;;;;;;20.15;78.38;95735.81;5049712;28;24459;-72
2022/07/25 00:45:16;;;;;;;10.95;6.95;;;;;;;20.00;79.33;95725.06;5049398;28;24442;-73
2022/07/25 00:47:42;;;;;;;8.13;7.30;;;;;;;20.03;79.98;95722.94;5049626;28;24509;-72
2022/07/25 00:50:09;;;;;;;7.88;7.13;;;;;;;20.14;79.70;95723.66;5049593;28;24432;-72
2022/07/25 00:52:36;;;;;;;9.05;7.03;;;;;;;20.19;79.01;95722.19;5049210;28;24984;-73
2022/07/25 00:55:03;;;;;;;8.85;7.32;;;;;;;20.19;79.16;95727.47;5043931;28;24439;-72
2022/07/25 00:57:29;;;;;;;9.10;7.18;;;;;;;20.18;79.39;95719.75;5049368;28;24439;-72
2022/07/25 00:59:58;;;;;;;9.45;7.25;;;;;;;20.16;79.73;95729.56;5046683;28;24446;-72
2022/07/25 01:02:24;;;;;;;7.95;7.10;;;;;;;19.95;81.13;95724.69;5049724;28;24447;-72
2022/07/25 01:04:51;;;;;;;9.07;7.63;;;;;;;19.80;82.52;95719.16;5049392;28;25006;-72
2022/07/25 01:07:18;;;;;;;8.70;7.78;;;;;;;19.77;82.24;95709.81;5049395;28;24470;-73
2022/07/25 01:09:44;;;;;;;7.85;7.05;;;;;;;19.81;81.69;95715.56;5049429;28;24435;-72
2022/07/25 01:12:11;;;;;;;11.45;7.47;;;;;;;19.78;82.80;95700.13;5049506;28;24439;-72
2022/07/25 01:14:37;;;;;;;8.32;6.75;;;;;;;19.79;82.49;95707.84;5049548;28;24438;-73
2022/07/25 01:17:05;;;;;;;9.82;7.18;;;;;;;19.81;82.29;95700.63;5049105;28;24434;-73
2022/07/25 01:19:31;;;;;;;9.38;7.70;;;;;;;19.81;82.03;95705.88;5049114;28;24610;-72
2022/07/25 01:21:59;;;;;;;7.82;7.03;;;;;;;19.87;81.74;95706.25;5046802;28;24478;-72
2022/07/25 01:24:26;;;;;;;7.57;6.90;;;;;;;19.91;81.58;95697.91;5046550;28;25865;-73
2022/07/25 01:26:52;;;;;;;8.13;7.32;;;;;;;19.96;81.10;95703.50;5049193;28;24434;-73
2022/07/25 01:29:19;;;;;;;11.70;7.93;;;;;;;19.96;81.04;95692.19;5049043;28;24446;-72
2022/07/25 01:31:45;;;;;;;8.77;7.18;;;;;;;19.92;81.29;95696.91;5049106;28;24797;-72
2022/07/25 01:34:11;;;;;;;7.88;7.05;;;;;;;19.94;81.26;95692.31;5049296;28;24443;-72
2022/07/25 01:36:38;;;;;;;7.95;7.18;;;;;;;19.92;81.19;95691.66;5049274;28;24444;-73
2022/07/25 01:39:06;;;;;;;7.72;6.90;;;;;;;19.85;81.66;95690.63;5045638;28;24435;-73
2022/07/25 01:41:32;;;;;;;9.27;7.60;;;;;;;19.82;81.67;95690.94;5048766;28;24442;-73
2022/07/25 01:43:59;;;;;;;8.50;7.60;;;;;;;19.81;81.79;95684.88;5049117;28;24517;-73
2022/07/25 01:46:25;;;;;;;7.47;6.63;;;;;;;19.82;81.63;95689.13;5048861;28;25010;-72
2022/07/25 01:48:51;;;;;;;9.32;7.03;;;;;;;19.83;81.64;95682.88;5048739;28;24431;-72
2022/07/25 01:51:18;;;;;;;7.80;7.00;;;;;;;19.83;81.19;95696.03;5048706;28;25010;-73
2022/07/25 01:53:44;;;;;;;8.38;7.20;;;;;;;19.76;81.50;95691.56;5049230;28;24427;-72
2022/07/25 01:56:12;;;;;;;8.68;6.95;;;;;;;19.68;81.47;95687.06;5049196;28;24447;-72
2022/07/25 01:58:39;;;;;;;7.88;6.90;;;;;;;19.73;80.80;95686.63;5051243;28;24489;-72
2022/07/25 02:01:05;;;;;;;8.65;7.50;;;;;;;19.48;82.57;95686.41;5052792;28;24848;-72
2022/07/25 02:03:32;;;;;;;9.02;6.95;;;;;;;19.40;83.25;95683.75;5052579;28;24844;-72
2022/07/25 02:06:00;;;;;;;7.50;6.70;;;;;;;19.38;83.50;95680.44;5051365;28;24439;-72
2022/07/25 02:08:27;;;;;;;8.25;7.45;;;;;;;19.32;84.14;95675.81;5051739;28;24431;-72
2022/07/25 02:10:54;;;;;;;8.90;7.15;;;;;;;19.22;84.24;95669.81;5052630;28;24439;-72
2022/07/25 02:13:23;;;;;;;8.27;7.38;;;;;;;19.12;86.20;95667.25;5052637;28;24431;-72
2022/07/25 02:15:49;;;;;;;8.68;6.90;;;;;;;19.07;86.45;95659.84;5052214;28;24497;-72
2022/07/25 02:18:16;;;;;;;10.43;7.28;;;;;;;19.15;85.54;95663.50;5052170;28;25012;-72
2022/07/25 02:20:43;;;;;;;10.60;8.02;;;;;;;19.33;83.42;95659.88;5052702;28;24438;-72
2022/07/25 02:23:09;;;;;;;8.30;7.50;;;;;;;19.01;85.62;95657.00;5052266;28;24444;-72
2022/07/25 02:25:37;;;;;;;8.05;7.25;;;;;;;18.87;87.54;95658.34;5052458;28;24443;-72
2022/07/25 02:28:04;;;;;;;10.02;7.57;;;;;;;18.79;88.12;95653.00;5051885;28;24844;-72
2022/07/25 02:30:32;;;;;;;8.90;7.95;;;;;;;18.91;88.10;95658.84;5052246;28;24471;-72
2022/07/25 02:32:58;;;;;;;9.05;8.25;;;;;;;18.97;88.25;95664.34;5052290;28;24439;-72
2022/07/25 02:35:25;;;;;;;8.40;7.60;;;;;;;19.08;87.83;95661.47;5051871;28;25065;-72
2022/07/25 02:37:51;;;;;;;13.00;8.27;;;;;;;19.16;87.56;95657.28;5052464;28;24828;-72
2022/07/25 02:40:18;;;;;;;9.05;8.10;;;;;;;19.21;87.27;95660.28;5052103;28;24466;-72
2022/07/25 02:42:44;;;;;;;8.75;7.07;;;;;;;19.26;87.08;95664.09;5052139;28;24508;-72
2022/07/25 02:45:11;;;;;;;8.75;7.95;;;;;;;19.24;87.57;95654.72;5051381;28;24447;-72
2022/07/25 02:47:39;;;;;;;9.82;8.80;;;;;;;19.15;87.66;95661.72;5051797;28;24839;-72
2022/07/25 02:50:06;;;;;;;9.40;8.48;;;;;;;19.18;87.66;95661.41;5049477;28;24438;-72
2022/07/25 02:52:32;;;;;;;9.40;8.50;;;;;;;19.12;88.55;95661.19;5052220;28;24428;-72
2022/07/25 02:54:59;;;;;;;9.18;8.25;;;;;;;19.09;88.42;95663.13;5051739;28;24797;-72
2022/07/25 02:57:25;;;;;;;8.67;7.87;;;;;;;19.17;87.66;95658.91;5051610;28;24534;-72
2022/07/25 02:59:52;;;;;;;9.38;8.05;;;;;;;19.15;88.24;95656.44;5051977;28;24439;-72
2022/07/25 03:02:18;;;;;;;8.98;8.07;;;;;;;19.15;88.35;95648.59;5051898;28;24435;-72
2022/07/25 03:04:46;;;;;;;8.52;7.70;;;;;;;19.12;88.32;95645.44;5051430;28;24828;-73
2022/07/25 03:07:12;;;;;;;8.60;7.78;;;;;;;19.16;88.16;95644.16;5051420;28;25234;-71
2022/07/25 03:09:39;;;;;;;8.98;7.80;;;;;;;18.82;90.36;95645.66;5050876;28;25118;-72
2022/07/25 03:12:05;;;;;;;11.50;9.02;;;;;;;18.74;91.12;95631.66;5051580;28;24447;-72
2022/07/25 03:14:32;;;;;;;9.60;8.48;;;;;;;18.79;90.54;95639.91;5051349;28;24436;-72
2022/07/25 03:16:58;;;;;;;10.85;8.43;;;;;;;18.84;90.39;95632.41;5045385;28;24435;-73
2022/07/25 03:19:25;;;;;;;9.38;8.25;;;;;;;18.89;89.86;95638.03;5051171;28;24447;-72
2022/07/25 03:21:53;;;;;;;9.18;8.18;;;;;;;19.00;88.90;95634.34;5051317;28;24824;-72
2022/07/25 03:24:19;;;;;;;9.73;8.20;;;;;;;18.99;89.27;95633.53;5051308;28;24455;-72
2022/07/25 03:26:46;;;;;;;8.63;7.80;;;;;;;19.05;88.94;95637.34;5049443;28;24446;-72
2022/07/25 03:29:12;;;;;;;10.75;8.05;;;;;;;19.01;88.60;95638.63;5050869;28;24451;-72
2022/07/25 03:31:39;;;;;;;8.88;8.00;;;;;;;19.00;88.33;95635.16;5059880;28;24431;-72
2022/07/25 03:34:05;;;;;;;9.32;8.20;;;;;;;18.85;89.42;95627.00;5050730;28;24430;-72
2022/07/25 03:36:32;;;;;;;10.35;8.07;;;;;;;18.87;90.11;95626.84;5050698;28;24535;-72
2022/07/25 03:38:59;;;;;;;9.02;8.07;;;;;;;18.94;89.78;95632.31;5046380;28;24442;-72
2022/07/25 03:41:26;;;;;;;9.55;8.65;;;;;;;18.99;89.18;95611.72;5050368;28;24462;-72
2022/07/25 03:43:53;;;;;;;9.43;8.43;;;;;;;19.02;88.73;95612.22;5050664;28;24455;-72
2022/07/25 03:46:19;;;;;;;10.73;8.50;;;;;;;19.01;88.95;95617.63;5043706;28;25007;-72
2022/07/25 03:48:46;;;;;;;9.68;8.18;;;;;;;19.02;88.68;95606.13;5046830;28;24843;-74
2022/07/25 03:51:12;;;;;;;9.20;8.30;;;;;;;19.04;88.76;95617.31;5050441;28;24841;-71
2022/07/25 03:56:21;;;;;;;9.48;7.88;;;;;;;19.08;87.89;95603.72;5049908;28;24512;-72
2022/07/25 03:58:47;;;;;;;10.88;7.88;;;;;;;19.08;86.09;95602.91;5045854;28;25018;-72
2022/07/25 04:01:14;;;;;;;8.85;7.88;;;;;;;18.94;85.72;95600.81;5050015;28;24438;-72
2022/07/25 04:03:40;;;;;;;12.80;8.88;;;;;;;18.81;86.21;95595.97;5050624;28;24462;-72
2022/07/25 04:06:06;;;;;;;11.35;8.60;;;;;;;18.84;86.02;95590.44;5050504;28;24454;-72
2022/07/25 04:08:33;;;;;;;9.47;8.47;;;;;;;18.50;88.98;95591.09;5050105;28;24859;-72
2022/07/25 04:10:59;;;;;;;9.40;7.75;;;;;;;18.44;90.78;95594.28;5050125;28;24801;-73
2022/07/25 04:13:28;;;;;;;9.23;8.32;;;;;;;18.47;90.78;95590.56;5048043;28;24454;-73
2022/07/25 04:15:55;;;;;;;8.75;7.90;;;;;;;18.52;90.67;95593.56;5050162;28;24522;-73
2022/07/25 04:18:21;;;;;;;11.02;8.52;;;;;;;18.60;90.74;95596.25;5049909;28;24493;-73
2022/07/25 04:20:48;;;;;;;9.67;8.07;;;;;;;18.68;90.62;95601.56;5049549;28;24443;-73
2022/07/25 04:23:15;;;;;;;10.20;8.15;;;;;;;18.72;89.46;95600.31;5050187;28;24547;-73
2022/07/25 04:25:41;;;;;;;8.60;7.45;;;;;;;18.74;89.87;95594.94;5048794;28;25042;-73
2022/07/25 04:28:07;;;;;;;9.18;8.23;;;;;;;18.76;90.25;95603.47;5047876;28;24992;-73
2022/07/25 04:30:36;;;;;;;9.30;8.30;;;;;;;18.77;90.99;95602.50;5048718;28;25263;-73
2022/07/25 04:33:02;;;;;;;11.07;8.57;;;;;;;18.63;92.13;95591.53;5049135;28;24439;-73
2022/07/25 04:35:29;;;;;;;10.07;9.07;;;;;;;18.69;91.58;95594.50;5049988;28;24444;-74
2022/07/25 04:37:55;;;;;;;10.40;9.20;;;;;;;18.73;91.30;95591.50;5048603;28;24442;-73
2022/07/25 04:40:22;;;;;;;9.77;8.88;;;;;;;18.72;92.27;95596.88;5049498;28;24542;-72
2022/07/25 04:42:48;;;;;;;9.87;8.60;;;;;;;18.75;91.94;95588.69;5049030;28;24489;-72
2022/07/25 04:45:15;;;;;;;10.10;8.98;;;;;;;18.87;91.66;95595.34;5049581;28;24447;-71
2022/07/25 04:47:42;;;;;;;9.63;8.05;;;;;;;18.96;91.51;95586.59;5049564;28;24608;-72
2022/07/25 04:50:09;;;;;;;10.20;8.75;;;;;;;19.05;90.91;95585.66;5048829;28;24871;-71
2022/07/25 04:52:36;;;;;;;9.52;7.97;;;;;;;19.23;89.87;95576.94;5049181;28;24447;-71
2022/07/25 04:55:03;;;;;;;9.10;8.15;;;;;;;19.22;90.14;95583.16;5049253;28;24440;-71
2022/07/25 04:57:30;;;;;;;9.15;7.88;;;;;;;19.40;89.14;95585.75;5049198;28;24447;-74
2022/07/25 04:59:57;;;;;;;12.57;8.13;;;;;;;19.49;88.23;95585.63;5045661;28;25117;-74
2022/07/25 05:02:24;;;;;;;9.02;8.18;;;;;;;19.39;89.74;95571.75;5048998;28;24459;-74
2022/07/25 05:04:52;;;;;;;8.85;8.05;;;;;;;19.51;90.96;95582.84;5047505;28;25019;-71
2022/07/25 05:07:18;;;;;;;10.27;9.18;;;;;;;19.66;91.56;95577.88;5046850;28;24443;-71
2022/07/25 05:09:44;;;;;;;12.43;9.75;;;;;;;19.74;92.06;95567.41;5046182;28;24489;-71
2022/07/25 05:12:11;;;;;;;12.57;9.48;;;;;;;19.80;92.32;95574.63;5049237;28;24439;-72
2022/07/25 05:14:38;;;;;;;13.48;9.48;;;;;;;19.90;91.18;95575.34;5049179;28;24435;-71
2022/07/25 05:17:04;;;;;;;10.52;9.40;;;;;;;19.89;91.47;95571.06;5049183;28;25054;-72
2022/07/25 05:19:31;;;;;;;13.32;9.82;;;;;;;19.96;90.25;95571.25;5049049;28;24492;-71
2022/07/25 05:21:58;;;;;;;9.37;8.47;;;;;;;20.05;87.88;95568.50;5038914;28;24488;-68
2022/07/25 05:24:25;;;;;;;9.00;8.10;;;;;;;20.08;84.87;95569.97;5048193;28;24466;-72
2022/07/25 05:26:51;;;;;;;9.40;8.23;;;;;;;20.00;83.88;95577.84;5047178;28;24435;-72
2022/07/25 05:29:18;;;;;;;12.45;8.98;;;;;;;19.91;84.01;95563.88;5048652;28;24442;-72
2022/07/25 05:31:44;;;;;;;9.90;8.33;;;;;;;19.94;84.51;95568.78;5049201;28;24572;-72
2022/07/25 05:34:11;;;;;;;10.60;8.80;;;;;;;20.13;84.73;95564.25;5052916;28;24442;-71
2022/07/25 05:36:37;;;;;;;10.27;8.85;;;;;;;20.31;83.83;95554.44;5053033;28;24439;-71
2022/07/25 05:39:05;;;;;;;9.63;8.73;;;;;;;20.42;84.64;95554.13;5052984;28;24502;-72
2022/07/25 05:41:32;;;;;;;9.20;8.27;;;;;;;20.66;84.84;95557.81;5048675;28;24446;-71
2022/07/25 05:43:58;;;;;;;13.32;9.38;;;;;;;20.86;84.15;95547.78;5053113;28;24455;-72
2022/07/25 05:46:25;;;;;;;10.50;9.02;;;;;;;21.01;83.79;95552.19;5052831;28;24447;-71
2022/07/25 05:48:51;;;;;;;10.57;8.68;;;;;;;21.13;80.67;95554.47;5051494;28;24454;-71
2022/07/25 05:51:17;;;;;;;9.18;8.27;;;;;;;21.18;77.31;95547.75;5046554;28;24427;-71
2022/07/25 05:53:44;;;;;;;10.13;8.48;;;;;;;21.25;76.66;95546.09;5053123;28;24427;-71
2022/07/25 05:56:12;;;;;;;10.38;9.07;;;;;;;21.31;77.09;95549.84;5047409;28;24450;-72
2022/07/25 05:58:39;;;;;;;11.07;8.52;;;;;;;21.18;77.14;95546.94;5049601;28;24438;-76
2022/07/25 06:01:06;;;;;;;18.58;8.20;;;;;;;21.23;75.69;95536.69;5052250;28;24443;-74
2022/07/25 06:03:33;;;;;;;11.75;8.43;;;;;;;21.30;76.43;95539.50;5051995;28;24501;-72
2022/07/25 06:05:59;;;;;;;9.65;8.15;;;;;;;21.35;75.82;95540.66;5047230;28;24511;-73
2022/07/25 06:08:27;;;;;;;9.45;8.55;;;;;;;21.33;76.14;95542.66;5048777;28;24490;-73
2022/07/25 06:10:54;;;;;;;11.27;8.48;;;;;;;21.43;75.53;95548.56;5048357;28;24965;-71
2022/07/25 06:13:22;;;;;;;13.30;8.48;;;;;;;21.62;75.13;95543.88;5043337;28;24436;-75
2022/07/25 06:15:48;;;;;;;13.95;8.00;;;;;;;21.88;72.86;95539.16;5045883;28;25007;-73
2022/07/25 06:18:15;;;;;;;8.93;7.70;;;;;;;21.93;72.54;95528.91;5049594;28;24439;-74
2022/07/25 06:20:41;;;;;;;9.30;8.00;;;;;;;22.09;72.08;95537.72;5052418;28;25015;-74
2022/07/25 06:23:08;;;;;;;10.40;7.65;;;;;;;22.25;70.92;95537.69;5050339;28;24999;-74
2022/07/25 06:25:34;;;;;;;8.43;7.63;;;;;;;22.42;69.77;95536.56;5052404;28;24438;-73
2022/07/25 06:28:01;;;;;;;9.95;7.78;;;;;;;22.53;69.28;95535.34;5052045;28;24442;-73
2022/07/25 06:30:29;;;;;;;8.15;7.30;;;;;;;22.80;68.33;95541.91;5052274;28;24435;-73
2022/07/25 06:32:56;;;;;;;10.50;8.70;;;;;;;22.88;67.71;95538.41;5052120;28;24439;-73
2022/07/25 06:35:22;;;;;;;10.27;7.63;;;;;;;23.07;67.26;95539.75;5049857;28;24442;-74
2022/07/25 06:37:49;;;;;;;9.98;7.50;;;;;;;23.34;65.67;95530.41;5052113;28;24435;-74
2022/07/25 06:40:16;;;;;;;13.95;7.90;;;;;;;23.51;65.03;95528.38;5052316;28;24435;-73
2022/07/25 06:42:44;;;;;;;9.13;7.90;;;;;;;23.54;65.02;95526.19;5051796;28;24824;-74
2022/07/25 06:45:12;;;;;;;8.32;7.53;;;;;;;23.91;64.34;95516.53;5051960;28;24486;-73
2022/07/25 06:47:41;;;;;;;10.40;7.43;;;;;;;24.07;63.69;95520.81;5052136;28;24446;-74
2022/07/25 06:50:10;;;;;;;8.68;7.07;;;;;;;24.33;62.95;95515.81;5051398;28;24438;-74
2022/07/25 06:52:37;;;;;;;8.98;7.47;;;;;;;24.45;62.55;95512.69;5045043;28;24899;-74
2022/07/25 06:55:05;;;;;;;9.55;7.68;;;;;;;24.51;62.32;95523.34;5049519;28;24832;-74
2022/07/25 06:57:31;;;;;;;11.43;7.50;;;;;;;24.87;62.07;95520.59;5051946;28;24686;-74
2022/07/25 06:59:58;;;;;;;9.13;7.60;;;;;;;25.19;60.04;95515.00;5051515;28;24427;-74
2022/07/25 07:02:24;;;;;;;9.07;7.20;;;;;;;25.41;59.34;95523.69;5051650;28;24972;-74
2022/07/25 07:04:52;;;;;;;8.63;7.63;;;;;;;25.44;58.89;95515.34;5051094;28;24467;-74
2022/07/25 07:07:19;;;;;;;10.90;8.15;;;;;;;25.42;58.35;95518.19;5052155;28;24446;-74
2022/07/25 07:09:45;;;;;;;9.00;7.32;;;;;;;25.44;58.63;95517.97;5050660;28;24461;-74
2022/07/25 07:12:12;;;;;;;8.63;6.95;;;;;;;25.97;57.49;95507.69;5053582;28;25915;-74
2022/07/25 07:14:38;;;;;;;10.15;7.28;;;;;;;26.16;56.34;95517.56;5046730;28;24439;-74
2022/07/25 07:17:05;;;;;;;7.93;7.13;;;;;;;26.09;56.46;95514.06;5053257;28;25038;-74
2022/07/25 07:19:32;;;;;;;10.48;7.60;;;;;;;26.06;55.99;95517.91;5052931;28;24443;-74
2022/07/25 07:22:00;;;;;;;15.02;7.65;;;;;;;26.24;56.21;95511.25;5051975;28;24493;-73
2022/07/25 07:24:26;;;;;;;8.43;6.93;;;;;;;26.54;54.30;95514.41;5051557;28;24521;-73
2022/07/25 07:26:53;;;;;;;14.93;7.63;;;;;;;26.51;53.69;95509.50;5051006;28;24438;-74
2022/07/25 07:29:20;;;;;;;7.38;6.68;;;;;;;26.83;53.46;95517.72;5051824;28;24506;-73
2022/07/25 07:31:47;;;;;;;9.17;7.13;;;;;;;27.36;52.45;95512.41;5041250;28;24423;-74
2022/07/25 07:34:13;;;;;;;9.45;7.18;;;;;;;27.52;50.26;95506.66;5052243;28;24500;-74
2022/07/25 07:36:40;;;;;;;9.57;7.10;;;;;;;27.61;51.08;95510.72;5051553;28;24526;-74
2022/07/25 07:39:08;;;;;;;8.93;7.15;;;;;;;28.03;50.08;95507.72;5051921;28;24539;-74
2022/07/25 07:41:34;;;;;;;8.25;6.88;;;;;;;28.12;48.77;95501.16;5051980;28;24435;-76
2022/07/25 07:44:00;;;;;;;9.48;7.00;;;;;;;28.11;48.50;95510.19;5051191;28;24485;-74
2022/07/25 07:46:27;;;;;;;9.98;7.13;;;;;;;28.06;48.97;95504.66;5052070;28;24446;-76
2022/07/25 07:48:53;;;;;;;10.13;7.38;;;;;;;28.16;48.18;95502.38;5051454;28;24440;-76
2022/07/25 07:51:20;;;;;;;17.65;6.97;;;;;;;28.14;48.61;95505.22;5051570;28;24434;-77
2022/07/25 07:56:32;;;;;;;8.98;7.20;;;;;;;28.51;47.15;95497.47;5047233;28;24458;-76
2022/07/25 07:58:59;;;;;;;7.30;6.50;;;;;;;28.67;46.90;95496.97;5051404;28;24876;-77
2022/07/25 08:01:31;;;;;;;10.10;7.18;;;;;;;28.97;46.63;95496.34;5053550;28;25027;-76
2022/07/25 08:03:58;;;;;;;8.63;7.20;;;;;;;29.11;45.94;95505.88;5051064;28;24618;-76
2022/07/25 08:06:26;;;;;;;8.88;6.53;;;;;;;29.13;44.71;95489.66;5051246;28;24438;-74
2022/07/25 08:08:53;;;;;;;7.75;6.40;;;;;;;29.51;44.55;95497.47;5051387;28;24473;-77
2022/07/25 08:11:19;;;;;;;8.18;6.68;;;;;;;29.55;44.13;95488.00;5048993;28;24438;-76
2022/07/25 08:13:47;;;;;;;17.75;6.75;;;;;;;29.61;42.96;95492.50;5041713;28;25107;-76
2022/07/25 08:16:13;;;;;;;7.30;6.57;;;;;;;29.66;42.44;95489.16;5050497;28;24501;-72
2022/07/25 08:18:40;;;;;;;7.47;6.28;;;;;;;29.69;41.35;95493.22;5044417;28;24865;-73
2022/07/25 08:21:07;;;;;;;7.93;5.72;;;;;;;29.92;39.55;95496.03;5048419;28;24475;-73
2022/07/25 08:23:34;;;;;;;8.18;5.50;;;;;;;30.57;39.12;95495.44;5050331;28;24431;-73
2022/07/25 08:26:01;;;;;;;5.43;4.93;;;;;;;30.61;36.25;95493.94;5050329;28;24590;-73
2022/07/25 08:28:28;;;;;;;6.17;5.53;;;;;;;30.45;37.46;95492.72;5047915;28;24428;-74
2022/07/25 08:30:56;;;;;;;7.53;5.55;;;;;;;30.61;37.91;95494.72;5050745;28;24442;-75
2022/07/25 08:33:23;;;;;;;6.45;5.22;;;;;;;30.62;37.14;95495.53;5050638;28;24999;-75
2022/07/25 08:35:52;;;;;;;7.07;5.35;;;;;;;30.92;37.13;95500.06;5050503;28;24427;-76
2022/07/25 08:38:18;;;;;;;6.25;5.30;;;;;;;31.00;36.40;95510.41;5050426;28;24435;-76
2022/07/25 08:40:46;;;;;;;6.03;4.50;;;;;;;31.07;35.09;95497.75;5051250;28;24564;-76
2022/07/25 08:43:14;;;;;;;4.43;3.90;;;;;;;31.24;33.24;95503.25;5052367;28;24793;-75
2022/07/25 08:45:44;;;;;;;4.60;3.70;;;;;;;31.42;31.66;95497.00;5049464;28;24558;-76
2022/07/25 08:48:12;;;;;;;3.63;3.22;;;;;;;31.51;30.32;95503.59;5050697;28;24490;-74
2022/07/25 08:50:40;;;;;;;3.90;3.42;;;;;;;31.44;30.49;95501.03;5051033;28;24439;-75
2022/07/25 08:53:06;;;;;;;5.05;3.70;;;;;;;31.59;30.62;95508.59;5049914;28;25003;-75
2022/07/25 08:55:33;;;;;;;4.15;3.50;;;;;;;31.73;30.44;95499.28;5050937;28;24801;-76
2022/07/25 08:58:00;;;;;;;6.97;3.65;;;;;;;31.77;29.85;95503.09;5051834;28;24449;-76
2022/07/25 09:00:28;;;;;;;4.50;3.33;;;;;;;31.66;30.35;95506.63;5052553;28;24809;-75
2022/07/25 09:02:56;;;;;;;4.70;3.42;;;;;;;31.70;29.52;95506.97;5052544;28;24474;-75
2022/07/25 09:05:26;;;;;;;4.88;3.80;;;;;;;31.88;29.76;95493.44;5050155;28;24533;-76
2022/07/25 09:07:53;;;;;;;5.40;3.60;;;;;;;31.74;30.01;95500.09;5049778;28;24442;-75
2022/07/25 09:10:21;;;;;;;4.47;3.50;;;;;;;31.78;29.56;95501.25;5050838;28;24439;-76
2022/07/25 09:12:53;;;;;;;3.10;2.75;;;;;;;31.93;29.19;95485.53;5043161;28;24450;-74
2022/07/25 09:15:24;;;;;;;4.00;2.72;;;;;;;32.34;30.03;95482.84;5047643;28;24972;-75
2022/07/25 09:17:52;;;;;;;3.47;3.15;;;;;;;32.36;28.35;95480.72;5048375;28;24438;-75
2022/07/25 09:20:20;;;;;;;6.95;3.95;;;;;;;32.32;28.67;95474.22;5044086;28;24485;-75
2022/07/25 09:22:48;;;;;;;4.22;3.83;;;;;;;32.04;28.68;95492.72;5044453;28;25025;-75
2022/07/25 09:25:28;;;;;;;5.25;3.45;;;;;;;31.99;29.74;95489.94;5046860;28;25128;-75
2022/07/25 09:27:55;;;;;;;4.33;3.53;;;;;;;32.24;29.43;95486.94;5050724;28;24443;-74
2022/07/25 09:30:22;;;;;;;5.22;3.15;;;;;;;32.44;27.82;95477.69;5050853;28;24439;-74
2022/07/25 09:33:00;;;;;;;3.63;2.78;;;;;;;32.45;27.92;95469.41;5050988;28;24438;-74
2022/07/25 09:35:30;;;;;;;3.95;3.05;;;;;;;32.62;27.90;95477.47;5048002;28;24844;-75
2022/07/25 09:38:10;;;;;;;5.25;3.10;;;;;;;32.65;27.64;95473.50;5049257;28;24470;-74
2022/07/25 09:40:36;;;;;;;3.40;3.10;;;;;;;33.04;27.20;95469.09;5051731;28;25084;-74
2022/07/25 09:43:03;;;;;;;4.35;3.22;;;;;;;32.90;27.84;95471.25;5045537;28;24431;-75
2022/07/25 09:45:30;;;;;;;3.90;2.90;;;;;;;32.94;27.93;95464.38;5050209;28;24467;-75
2022/07/25 09:48:00;;;;;;;4.63;3.40;;;;;;;33.08;27.39;95458.66;5051474;28;24441;-75
2022/07/25 09:50:28;;;;;;;6.10;3.42;;;;;;;33.04;28.19;95465.56;5051632;28;24995;-75
2022/07/25 09:52:59;;;;;;;5.95;3.45;;;;;;;33.08;28.40;95472.91;5051046;28;24439;-75
2022/07/25 09:55:28;;;;;;;4.38;3.17;;;;;;;33.30;27.43;95466.75;5051725;28;24446;-74
2022/07/25 09:57:55;;;;;;;8.13;3.13;;;;;;;33.05;28.57;95461.84;5047122;28;25003;-75
2022/07/25 10:00:26;;;;;;;5.13;3.25;;;;;;;32.96;28.19;95467.59;5053031;28;24439;-75
2022/07/25 10:03:10;;;;;;;3.45;3.08;;;;;;;33.13;27.39;95456.06;5050277;28;25050;-74
2022/07/25 10:05:49;;;;;;;3.25;2.85;;;;;;;33.16;27.36;95458.25;5049791;28;24451;-74
2022/07/25 10:08:18;;;;;;;5.30;3.33;;;;;;;33.31;27.79;95455.00;5049469;28;24530;-73
2022/07/25 10:10:46;;;;;;;3.65;3.20;;;;;;;33.44;27.17;95458.09;5049657;28;25003;-74
2022/07/25 10:13:16;;;;;;;5.50;3.33;;;;;;;33.50;26.84;95458.22;5043694;28;24489;-74
2022/07/25 10:15:48;;;;;;;4.17;3.00;;;;;;;33.76;26.63;95457.50;5049750;28;24432;-74
2022/07/25 10:18:17;;;;;;;5.07;3.43;;;;;;;33.30;27.31;95456.88;5049022;28;24435;-73
2022/07/25 10:20:45;;;;;;;3.75;3.40;;;;;;;33.60;26.65;95453.00;5053701;28;24517;-73
2022/07/25 10:23:22;;;;;;;4.25;3.33;;;;;;;33.38;27.14;95448.38;5048684;28;24440;-73
2022/07/25 10:26:01;;;;;;;4.15;3.10;;;;;;;32.89;27.74;95452.69;5046837;28;24981;-73
2022/07/25 10:28:36;;;;;;;3.53;3.00;;;;;;;33.41;26.79;95445.22;5048382;28;24438;-74
2022/07/25 10:31:03;;;;;;;5.75;3.35;;;;;;;33.41;26.71;95442.53;5046836;28;24593;-73
2022/07/25 10:33:29;;;;;;;5.72;3.10;;;;;;;33.34;27.58;95441.06;5051127;28;24434;-74
2022/07/25 10:36:06;;;;;;;5.03;3.20;;;;;;;33.73;27.18;95426.56;5049869;28;24442;-74
2022/07/25 10:38:33;;;;;;;4.33;3.67;;;;;;;33.91;26.86;95425.44;5050745;28;24566;-74
2022/07/25 10:41:02;;;;;;;7.15;3.28;;;;;;;34.34;26.49;95434.53;5050173;28;24469;-73
2022/07/25 10:43:28;;;;;;;3.63;3.10;;;;;;;34.54;26.30;95435.81;5048980;28;24435;-73
2022/07/25 10:45:58;;;;;;;3.22;2.92;;;;;;;34.47;25.46;95429.81;5046072;28;24459;-74
2022/07/25 10:48:26;;;;;;;7.03;3.58;;;;;;;34.82;25.44;95434.69;5048696;28;24438;-75
2022/07/25 10:50:57;;;;;;;5.80;2.90;;;;;;;34.72;25.17;95435.44;5051809;28;24515;-74
2022/07/25 10:53:34;;;;;;;4.88;3.45;;;;;;;34.61;24.89;95420.28;5053146;28;24813;-75
2022/07/25 10:56:07;;;;;;;3.10;2.80;;;;;;;34.47;25.17;95421.75;5053611;28;24435;-75
2022/07/25 10:58:49;;;;;;;4.30;2.95;;;;;;;34.58;24.86;95420.78;5052816;28;24431;-75
2022/07/25 11:01:20;;;;;;;3.65;2.83;;;;;;;34.65;25.16;95422.19;5053511;28;24450;-75
2022/07/25 11:03:47;;;;;;;4.00;3.13;;;;;;;34.75;25.18;95428.75;5053712;28;24419;-75
2022/07/25 11:06:15;;;;;;;4.35;3.40;;;;;;;34.59;25.41;95425.09;5053543;28;24455;-75
2022/07/25 11:08:42;;;;;;;4.15;3.25;;;;;;;34.17;25.72;95425.75;5053280;28;24443;-75
2022/07/25 11:11:11;;;;;;;6.65;3.30;;;;;;;33.67;26.30;95422.22;5051973;28;24493;-74
2022/07/25 11:13:38;;;;;;;3.95;3.38;;;;;;;33.72;26.75;95411.53;5052167;28;24437;-75
2022/07/25 11:16:06;;;;;;;4.53;3.58;;;;;;;33.64;26.57;95405.78;5052365;28;24447;-73
2022/07/25 11:18:35;;;;;;;5.80;3.70;;;;;;;33.07;27.39;95408.75;5052031;28;24813;-74
2022/07/25 11:21:04;;;;;;;4.03;3.20;;;;;;;33.32;27.09;95409.09;5052178;28;24474;-74
2022/07/25 11:23:31;;;;;;;4.25;3.67;;;;;;;33.24;27.32;95409.53;5052548;28;24451;-75
2022/07/25 11:26:07;;;;;;;4.95;3.42;;;;;;;32.95;27.93;95398.91;5052852;28;24593;-75
2022/07/25 11:28:40;;;;;;;5.32;3.80;;;;;;;32.91;27.87;95399.63;5052849;28;24419;-74
2022/07/25 11:31:07;;;;;;;6.03;3.47;;;;;;;32.76;28.10;95402.91;5051615;28;24809;-75
2022/07/25 11:33:35;;;;;;;6.03;3.80;;;;;;;32.75;28.37;95401.28;5051020;28;24442;-74
2022/07/25 11:36:02;;;;;;;4.40;3.30;;;;;;;32.71;27.93;95395.59;5052075;28;24439;-75
2022/07/25 11:38:29;;;;;;;4.57;3.20;;;;;;;33.10;28.28;95402.88;5051305;28;24797;-74